Terminal Aerodrome Forecast
Issued by NWS

Home | Current Version | Previous Version | Text Only | Print | Product List | Glossary On
Versions: 1 2 3 4 5 6 7 8 9 10 11 12 13 14 15 16 17 18 19 20 21 22 23 24
000
FTUS45 KGJT 042343
TAFDRO
TAF
KDRO 042343Z 0500/0524 19008KT P6SM VCTS BKN090CB
      TEMPO 0500/0503 VRB10G20KT -TSRA BKN070CB
     FM050300 04005KT P6SM VCTS SCT070CB BKN120
     FM050600 30010KT P6SM VCTS SCT050CB OVC070
      TEMPO 0506/0510 VRB10G20KT -TSRA BKN050CB
     FM051200 01003KT P6SM VCSH BKN070 OVC100
     FM051800 24008KT P6SM VCTS SCT080CB BKN120=

USA.gov is the U.S. government's official web portal to all federal, state and local government web resources and services.